Time;durP1;ratioP1;P1;durP2;ratioP2;P2;SDS_P1;SDS_P2;PMS_P1;PMS_P2;Temp;Humidity;BMP_temperature;BMP_pressure;BME280_temperature;BME280_humidity;BME280_pressure;Samples;Min_cycle;Max_cycle;Signal;HPM_P1;HPM_P2
2023/05/04 00:00:04;;;;;;;4.97;2.50;;;7.80;99.90;;;;;;4209967;28;20459;-74
2023/05/04 00:02:06;;;;;;;5.57;2.60;;;7.70;99.90;;;;;;4204834;28;20498;-74
2023/05/04 00:04:10;;;;;;;5.53;2.50;;;7.70;99.90;;;;;;4205286;28;20232;-75
2023/05/04 00:06:12;;;;;;;4.90;2.50;;;7.70;99.90;;;;;;4205364;28;20460;-75
2023/05/04 00:08:14;;;;;;;4.23;2.37;;;7.70;99.90;;;;;;4201538;28;20497;-75
2023/05/04 00:10:16;;;;;;;3.97;2.50;;;7.70;99.90;;;;;;4207855;28;20828;-74
2023/05/04 00:12:17;;;;;;;3.37;2.23;;;7.60;99.90;;;;;;4207505;28;20508;-75
2023/05/04 00:14:19;;;;;;;5.27;2.33;;;7.60;99.90;;;;;;4207114;28;20549;-75
2023/05/04 00:16:21;;;;;;;4.47;2.20;;;7.60;99.90;;;;;;4211112;28;20458;-75
2023/05/04 00:18:23;;;;;;;5.77;2.60;;;7.50;99.90;;;;;;4207345;28;21097;-75
2023/05/04 00:20:26;;;;;;;7.90;2.83;;;7.50;99.90;;;;;;4209767;28;20487;-75
2023/05/04 00:22:28;;;;;;;6.17;2.77;;;7.50;99.90;;;;;;4207067;28;20456;-74
2023/05/04 00:24:30;;;;;;;4.70;2.30;;;7.50;99.90;;;;;;4203941;28;20470;-75
2023/05/04 00:26:32;;;;;;;6.97;2.70;;;7.40;99.90;;;;;;4212468;28;20840;-75
2023/05/04 00:28:34;;;;;;;6.27;2.23;;;7.40;99.90;;;;;;4210306;28;21309;-75
2023/05/04 00:30:36;;;;;;;6.43;2.40;;;7.40;99.90;;;;;;4208094;28;20474;-74
2023/05/04 00:32:38;;;;;;;3.30;2.40;;;7.40;99.90;;;;;;4210914;28;20459;-76
2023/05/04 00:34:39;;;;;;;3.97;2.30;;;7.30;99.90;;;;;;4214126;28;20493;-75
2023/05/04 00:36:43;;;;;;;5.50;2.47;;;7.30;99.90;;;;;;4205426;28;20871;-75
2023/05/04 00:38:49;;;;;;;5.20;2.50;;;7.30;99.90;;;;;;4213226;28;20492;-75
2023/05/04 00:40:51;;;;;;;3.63;2.33;;;7.30;99.90;;;;;;4211224;28;20471;-74
2023/05/04 00:42:53;;;;;;;4.87;2.80;;;7.20;99.90;;;;;;4204851;28;20514;-75
2023/05/04 00:44:54;;;;;;;3.97;2.43;;;7.20;99.90;;;;;;4203643;28;20531;-75
2023/05/04 00:46:57;;;;;;;4.97;2.53;;;7.20;99.90;;;;;;4214934;28;20470;-75
2023/05/04 00:48:59;;;;;;;5.80;2.50;;;7.10;99.90;;;;;;4209365;28;20558;-74
2023/05/04 00:51:01;;;;;;;6.03;2.20;;;7.10;99.90;;;;;;4207055;28;20458;-75
2023/05/04 00:53:09;;;;;;;5.13;2.60;;;7.00;99.90;;;;;;4210844;28;20489;-75
2023/05/04 00:55:11;;;;;;;4.77;2.30;;;7.00;99.90;;;;;;4210965;28;20527;-75
2023/05/04 00:57:15;;;;;;;4.70;2.37;;;7.00;99.90;;;;;;4209643;28;20458;-75
2023/05/04 00:59:17;;;;;;;6.07;2.67;;;7.00;99.90;;;;;;4208328;28;20469;-74
2023/05/04 01:01:19;;;;;;;5.27;2.60;;;7.00;99.90;;;;;;4208540;28;20462;-74
2023/05/04 01:03:21;;;;;;;4.67;2.43;;;6.90;99.90;;;;;;4206869;28;20489;-74
2023/05/04 01:05:26;;;;;;;4.27;2.57;;;6.90;99.90;;;;;;4211680;28;20463;-76
2023/05/04 01:07:38;;;;;;;5.57;2.80;;;6.90;99.90;;;;;;4209831;28;20855;-75
2023/05/04 01:09:50;;;;;;;4.83;2.33;;;6.80;99.90;;;;;;4205893;28;20477;-75
2023/05/04 01:11:58;;;;;;;6.63;2.70;;;6.80;99.90;;;;;;4209220;28;20584;-75
2023/05/04 01:14:01;;;;;;;5.57;2.53;;;6.80;99.90;;;;;;4214055;28;20562;-74
2023/05/04 01:16:04;;;;;;;6.07;2.53;;;6.70;99.90;;;;;;4209388;28;20553;-73
2023/05/04 01:18:06;;;;;;;3.67;2.50;;;6.80;99.90;;;;;;4210027;28;20493;-73
2023/05/04 01:20:09;;;;;;;5.93;3.00;;;6.70;99.90;;;;;;4210402;28;20489;-73
2023/05/04 01:22:12;;;;;;;6.00;2.90;;;6.70;99.90;;;;;;4208204;28;20478;-73
2023/05/04 01:24:15;;;;;;;3.60;2.20;;;6.70;99.90;;;;;;4210638;28;20574;-73
2023/05/04 01:26:23;;;;;;;4.40;2.60;;;6.60;99.90;;;;;;4214282;28;20450;-73
2023/05/04 01:28:32;;;;;;;2.73;2.30;;;6.60;99.90;;;;;;4210598;28;21003;-73
2023/05/04 01:30:39;;;;;;;8.50;2.30;;;6.60;99.90;;;;;;4210037;28;20466;-73
2023/05/04 01:32:42;;;;;;;6.27;2.60;;;6.60;99.90;;;;;;4208093;28;20467;-74
2023/05/04 01:34:44;;;;;;;4.90;2.40;;;6.50;99.90;;;;;;4211056;28;20473;-74
2023/05/04 01:36:46;;;;;;;4.73;2.70;;;6.50;99.90;;;;;;4215955;28;20601;-74
2023/05/04 01:38:53;;;;;;;5.20;3.30;;;6.50;99.90;;;;;;4210418;28;20588;-73
2023/05/04 01:40:55;;;;;;;5.10;2.50;;;6.50;99.90;;;;;;4208340;28;20483;-73
2023/05/04 01:42:57;;;;;;;5.47;2.83;;;6.50;99.90;;;;;;4210435;28;20506;-73
2023/05/04 01:45:03;;;;;;;5.50;2.97;;;6.50;99.90;;;;;;4209322;28;20578;-73
2023/05/04 01:47:05;;;;;;;5.97;2.83;;;6.50;99.90;;;;;;4209844;28;20473;-73
2023/05/04 01:49:07;;;;;;;7.93;3.00;;;6.50;99.90;;;;;;4209735;28;20578;-75
2023/05/04 01:51:09;;;;;;;5.53;2.87;;;6.40;99.90;;;;;;4205204;28;20550;-73
2023/05/04 01:53:10;;;;;;;7.07;3.20;;;6.40;99.90;;;;;;4208920;28;20592;-74
2023/05/04 01:55:14;;;;;;;6.03;2.63;;;6.40;99.90;;;;;;4207618;28;20988;-73
2023/05/04 01:57:16;;;;;;;5.63;3.20;;;6.40;99.90;;;;;;4206541;28;20458;-73
2023/05/04 01:59:18;;;;;;;7.40;3.30;;;6.40;99.90;;;;;;4208668;28;20806;-73
2023/05/04 02:01:19;;;;;;;4.90;2.90;;;6.30;99.90;;;;;;4208821;28;20466;-73
2023/05/04 02:03:21;;;;;;;6.03;3.10;;;6.30;99.90;;;;;;4206895;28;20591;-73
2023/05/04 02:05:23;;;;;;;5.20;3.20;;;6.30;99.90;;;;;;4213748;28;20468;-73
2023/05/04 02:07:25;;;;;;;6.40;3.10;;;6.30;99.90;;;;;;4208808;28;20461;-73
2023/05/04 02:09:28;;;;;;;6.93;2.67;;;6.30;99.90;;;;;;4209041;28;20465;-74
2023/05/04 02:11:31;;;;;;;6.00;3.07;;;6.20;99.90;;;;;;4211758;28;20485;-73
2023/05/04 02:13:33;;;;;;;8.23;3.30;;;6.20;99.90;;;;;;4211030;28;20496;-73
2023/05/04 02:15:35;;;;;;;5.57;3.50;;;6.20;99.90;;;;;;4209763;28;20472;-73
2023/05/04 02:17:37;;;;;;;5.90;3.00;;;6.10;99.90;;;;;;4204299;28;20466;-73
2023/05/04 02:19:38;;;;;;;7.20;3.17;;;6.20;99.90;;;;;;4204968;28;20475;-73
2023/05/04 02:21:41;;;;;;;4.93;3.07;;;6.20;99.90;;;;;;4205810;28;20465;-73
2023/05/04 02:23:43;;;;;;;6.13;3.10;;;6.10;99.90;;;;;;4209874;28;20487;-73
2023/05/04 02:25:45;;;;;;;5.03;2.87;;;6.10;99.90;;;;;;4211186;28;20458;-73
2023/05/04 02:27:48;;;;;;;6.03;3.17;;;6.10;99.90;;;;;;4209808;28;20500;-73
2023/05/04 02:29:50;;;;;;;5.13;3.07;;;6.00;99.90;;;;;;4208679;28;20843;-72
2023/05/04 02:31:52;;;;;;;7.57;3.40;;;6.00;99.90;;;;;;4206830;28;20477;-73
2023/05/04 02:33:54;;;;;;;6.40;2.90;;;6.00;99.90;;;;;;4209668;28;20511;-74
2023/05/04 02:35:56;;;;;;;10.80;3.43;;;6.00;99.90;;;;;;4208856;28;20475;-73
2023/05/04 02:37:57;;;;;;;6.30;3.50;;;5.90;99.90;;;;;;4207537;28;20469;-72
2023/05/04 02:39:59;;;;;;;6.37;2.90;;;6.00;99.90;;;;;;4210770;28;20473;-73
2023/05/04 02:42:01;;;;;;;5.13;3.27;;;6.00;99.90;;;;;;4206149;28;20497;-73
2023/05/04 02:44:05;;;;;;;7.63;3.37;;;5.90;99.90;;;;;;4209315;28;20497;-73
2023/05/04 02:46:07;;;;;;;6.70;3.27;;;5.90;99.90;;;;;;4211924;28;20500;-73
2023/05/04 02:48:09;;;;;;;6.37;3.53;;;5.90;99.90;;;;;;4211033;28;20573;-73
2023/05/04 02:50:11;;;;;;;5.60;3.30;;;5.80;99.90;;;;;;4211509;28;20466;-74
2023/05/04 02:52:13;;;;;;;9.97;3.63;;;5.90;99.90;;;;;;4214630;28;20822;-74
2023/05/04 02:54:15;;;;;;;5.77;3.03;;;5.90;99.90;;;;;;4213141;28;20482;-74
2023/05/04 02:56:17;;;;;;;7.37;3.57;;;5.80;99.90;;;;;;4215471;28;20502;-74
2023/05/04 02:58:18;;;;;;;5.47;3.17;;;5.80;99.90;;;;;;4210648;28;20494;-73
2023/05/04 03:00:22;;;;;;;7.50;3.30;;;5.80;99.90;;;;;;4212998;28;20453;-73
2023/05/04 03:02:24;;;;;;;5.93;3.10;;;5.80;99.90;;;;;;4215224;28;20549;-73
2023/05/04 03:04:26;;;;;;;6.40;3.47;;;5.80;99.90;;;;;;4211671;28;20848;-72
2023/05/04 03:06:28;;;;;;;6.03;4.10;;;5.80;99.90;;;;;;4210936;28;20481;-73
2023/05/04 03:08:30;;;;;;;5.50;3.20;;;5.70;99.90;;;;;;4207933;28;20480;-72
2023/05/04 03:10:32;;;;;;;6.07;3.40;;;5.70;99.90;;;;;;4212575;28;20948;-73
2023/05/04 03:12:34;;;;;;;6.30;3.80;;;5.80;99.90;;;;;;4211625;28;20564;-73
2023/05/04 03:14:36;;;;;;;6.77;3.47;;;5.70;99.90;;;;;;4210780;28;20468;-73
2023/05/04 03:16:39;;;;;;;7.33;3.73;;;5.70;99.90;;;;;;4211041;28;20587;-73
2023/05/04 03:18:41;;;;;;;6.27;3.23;;;5.70;99.90;;;;;;4209638;28;20579;-73
2023/05/04 03:20:43;;;;;;;6.83;3.63;;;5.70;99.90;;;;;;4207098;28;21409;-73
2023/05/04 03:22:45;;;;;;;6.17;3.67;;;5.70;99.90;;;;;;4206639;28;20474;-73
2023/05/04 03:24:47;;;;;;;7.77;3.70;;;5.60;99.90;;;;;;4213417;28;20488;-74
2023/05/04 03:26:48;;;;;;;4.17;3.00;;;5.60;99.90;;;;;;4208171;28;20457;-73
2023/05/04 03:28:50;;;;;;;6.27;3.77;;;5.60;99.90;;;;;;4207004;28;20936;-73
2023/05/04 03:30:52;;;;;;;8.70;4.30;;;5.60;99.90;;;;;;4207681;28;20549;-73
2023/05/04 03:32:56;;;;;;;9.07;4.40;;;5.50;99.90;;;;;;4209614;28;20491;-73
2023/05/04 03:34:57;;;;;;;9.37;4.03;;;5.60;99.90;;;;;;4207262;28;20973;-73
2023/05/04 03:37:00;;;;;;;8.00;3.87;;;5.50;99.90;;;;;;4209467;28;20474;-73
2023/05/04 03:39:01;;;;;;;5.90;3.40;;;5.50;99.90;;;;;;4207410;28;20946;-73
2023/05/04 03:41:03;;;;;;;5.20;3.43;;;5.50;99.90;;;;;;4211476;28;20459;-73
2023/05/04 03:43:05;;;;;;;7.97;3.67;;;5.50;99.90;;;;;;4208000;28;20481;-73
2023/05/04 03:45:08;;;;;;;8.10;3.77;;;5.50;99.90;;;;;;4206168;28;20887;-74
2023/05/04 03:47:10;;;;;;;7.20;4.23;;;5.50;99.90;;;;;;4206705;28;21076;-73
2023/05/04 03:49:13;;;;;;;5.77;3.67;;;5.50;99.90;;;;;;4205459;28;20577;-73
2023/05/04 03:51:15;;;;;;;6.93;3.53;;;5.40;99.90;;;;;;4208126;28;21058;-73
2023/05/04 03:53:17;;;;;;;6.00;3.57;;;5.50;99.90;;;;;;4212559;28;20480;-74
2023/05/04 03:55:19;;;;;;;7.27;4.10;;;5.50;99.90;;;;;;4206999;28;20468;-74
2023/05/04 03:57:23;;;;;;;7.10;3.90;;;5.40;99.90;;;;;;4205275;28;20563;-74
2023/05/04 03:59:25;;;;;;;7.53;4.17;;;5.50;99.90;;;;;;4205342;28;20460;-75
2023/05/04 04:01:29;;;;;;;8.00;4.20;;;5.50;99.90;;;;;;4206945;28;20980;-75
2023/05/04 04:03:31;;;;;;;7.93;4.47;;;5.40;99.90;;;;;;4208290;28;21021;-75
2023/05/04 04:05:35;;;;;;;7.63;4.30;;;5.40;99.90;;;;;;4203991;28;21039;-74
2023/05/04 04:07:37;;;;;;;8.80;4.50;;;5.50;99.90;;;;;;4205289;28;20574;-75
2023/05/04 04:09:38;;;;;;;10.40;4.47;;;5.40;99.90;;;;;;4205815;28;20486;-75
2023/05/04 04:11:41;;;;;;;8.13;4.40;;;5.40;99.90;;;;;;4205320;28;20464;-75
2023/05/04 04:13:42;;;;;;;9.53;4.53;;;5.40;99.90;;;;;;4204066;28;20866;-75
2023/05/04 04:15:45;;;;;;;8.30;4.20;;;5.40;99.90;;;;;;4204511;28;20573;-75
2023/05/04 04:17:47;;;;;;;7.73;3.90;;;5.40;99.90;;;;;;4210111;28;20542;-76
2023/05/04 04:19:49;;;;;;;7.97;4.00;;;5.40;99.90;;;;;;4206613;28;20575;-75
2023/05/04 04:21:52;;;;;;;8.93;4.57;;;5.40;99.90;;;;;;4208187;28;20476;-74
2023/05/04 04:23:54;;;;;;;7.80;4.03;;;5.40;99.90;;;;;;4203288;28;20552;-75
2023/05/04 04:25:56;;;;;;;7.73;4.50;;;5.40;99.90;;;;;;4208649;28;21035;-75
2023/05/04 04:27:58;;;;;;;8.30;4.53;;;5.40;99.90;;;;;;4204669;28;20460;-75
2023/05/04 04:30:00;;;;;;;8.00;4.40;;;5.40;99.90;;;;;;4204966;28;20480;-75
2023/05/04 04:32:02;;;;;;;8.33;4.60;;;5.40;99.90;;;;;;4208440;28;20884;-74
2023/05/04 04:34:04;;;;;;;7.53;3.97;;;5.50;99.90;;;;;;4207333;28;20573;-75
2023/05/04 04:36:06;;;;;;;8.07;4.30;;;5.50;99.90;;;;;;4203577;28;20492;-75
2023/05/04 04:38:10;;;;;;;6.70;4.17;;;5.50;99.90;;;;;;4207372;28;20488;-74
2023/05/04 04:40:13;;;;;;;8.37;4.70;;;5.50;99.90;;;;;;4207783;28;20965;-75
2023/05/04 04:42:15;;;;;;;8.47;4.50;;;5.50;99.90;;;;;;4213248;28;21263;-74
2023/05/04 04:44:17;;;;;;;9.00;4.20;;;5.50;99.90;;;;;;4212499;28;21273;-76
2023/05/04 04:46:19;;;;;;;7.73;4.13;;;5.50;99.90;;;;;;4206998;28;21358;-74
2023/05/04 04:48:22;;;;;;;7.57;4.07;;;5.50;99.90;;;;;;4204974;28;20454;-74
2023/05/04 04:50:24;;;;;;;8.80;4.57;;;5.60;99.90;;;;;;4200873;28;20470;-74
2023/05/04 04:52:26;;;;;;;7.20;4.50;;;5.60;99.90;;;;;;4208526;28;21036;-75
2023/05/04 04:54:30;;;;;;;8.97;4.47;;;5.60;99.90;;;;;;4206952;28;21193;-73
2023/05/04 04:56:32;;;;;;;6.40;4.10;;;5.60;99.90;;;;;;4206428;28;20487;-74
2023/05/04 04:58:34;;;;;;;8.60;4.00;;;5.60;99.90;;;;;;4204097;28;20463;-75
2023/05/04 05:00:36;;;;;;;7.07;4.20;;;5.60;99.90;;;;;;4207712;28;20473;-74
2023/05/04 05:02:38;;;;;;;6.83;4.10;;;5.60;99.90;;;;;;4211737;28;20481;-73
2023/05/04 05:04:40;;;;;;;6.93;4.33;;;5.60;99.90;;;;;;4209924;28;20444;-74
2023/05/04 05:06:42;;;;;;;7.83;3.87;;;5.60;99.90;;;;;;4208809;28;20529;-74
2023/05/04 05:08:44;;;;;;;6.63;4.07;;;5.60;99.90;;;;;;4211685;28;21020;-75
2023/05/04 05:10:47;;;;;;;6.23;3.87;;;5.60;99.90;;;;;;4212727;28;20510;-75
2023/05/04 05:12:50;;;;;;;7.37;4.30;;;5.60;99.90;;;;;;4207095;28;20460;-74
2023/05/04 05:14:52;;;;;;;7.00;4.00;;;5.60;99.90;;;;;;4208240;28;20461;-74
2023/05/04 05:16:54;;;;;;;6.30;3.97;;;5.60;99.90;;;;;;4206668;28;20568;-74
2023/05/04 05:18:56;;;;;;;5.77;3.73;;;5.60;99.90;;;;;;4207338;28;20510;-75
2023/05/04 05:20:58;;;;;;;6.57;4.00;;;5.60;99.90;;;;;;4207677;28;20479;-73
2023/05/04 05:23:00;;;;;;;7.73;4.20;;;5.70;99.90;;;;;;4214497;28;20583;-75
2023/05/04 05:25:02;;;;;;;9.00;4.60;;;5.70;99.90;;;;;;4214873;28;20477;-73
2023/05/04 05:27:05;;;;;;;9.10;5.10;;;5.70;99.90;;;;;;4206523;28;20480;-75
2023/05/04 05:29:07;;;;;;;7.40;4.10;;;5.70;99.90;;;;;;4203558;28;21814;-74
2023/05/04 05:31:10;;;;;;;6.97;4.10;;;5.80;99.90;;;;;;4204629;28;20485;-74
2023/05/04 05:33:12;;;;;;;8.10;4.67;;;5.80;99.90;;;;;;4207441;28;20493;-74
2023/05/04 05:35:14;;;;;;;6.47;4.20;;;5.90;99.90;;;;;;4214528;28;20496;-74
2023/05/04 05:37:16;;;;;;;6.33;4.23;;;5.90;99.90;;;;;;4209814;28;20442;-75
2023/05/04 05:39:18;;;;;;;8.70;4.40;;;5.90;99.90;;;;;;4208941;28;20544;-74
2023/05/04 05:41:21;;;;;;;7.27;4.53;;;6.00;99.90;;;;;;4206696;28;20908;-74
2023/05/04 05:43:24;;;;;;;8.50;5.13;;;6.00;99.90;;;;;;4210189;28;20522;-74
2023/05/04 05:45:26;;;;;;;10.10;5.13;;;6.10;99.90;;;;;;4211199;28;20555;-74
2023/05/04 05:47:28;;;;;;;8.80;4.60;;;6.10;99.90;;;;;;4208150;28;20494;-74
2023/05/04 05:49:30;;;;;;;7.93;4.93;;;6.10;99.90;;;;;;4212007;28;20497;-74
2023/05/04 05:51:32;;;;;;;8.13;4.40;;;6.20;99.90;;;;;;4214707;28;21230;-74
2023/05/04 05:53:34;;;;;;;7.07;4.40;;;6.20;99.90;;;;;;4205416;28;22172;-73
2023/05/04 05:55:36;;;;;;;7.70;4.53;;;6.30;99.90;;;;;;4204693;28;20541;-74
2023/05/04 05:57:38;;;;;;;7.70;4.73;;;6.30;99.90;;;;;;4205050;28;20470;-75
2023/05/04 05:59:43;;;;;;;8.97;4.40;;;6.40;99.90;;;;;;4205725;28;20458;-76
2023/05/04 06:01:45;;;;;;;9.87;4.57;;;6.50;99.90;;;;;;4209006;28;20508;-73
2023/05/04 06:03:47;;;;;;;12.73;5.60;;;6.50;99.90;;;;;;4213723;28;20577;-74
2023/05/04 06:05:49;;;;;;;7.47;4.23;;;6.50;99.90;;;;;;4208030;28;20455;-74
2023/05/04 06:07:51;;;;;;;9.87;4.80;;;6.60;99.90;;;;;;4209024;28;20490;-73
2023/05/04 06:09:52;;;;;;;9.27;5.00;;;6.60;99.90;;;;;;4208842;28;21131;-73
2023/05/04 06:11:54;;;;;;;6.97;4.73;;;6.70;99.90;;;;;;4209653;28;20828;-75
2023/05/04 06:13:56;;;;;;;10.07;5.00;;;6.70;99.90;;;;;;4211184;28;20573;-74
2023/05/04 06:16:00;;;;;;;11.53;5.27;;;6.80;99.90;;;;;;4209242;28;20469;-74
2023/05/04 06:18:01;;;;;;;8.63;5.00;;;6.90;99.90;;;;;;4204710;28;20473;-74
2023/05/04 06:20:04;;;;;;;7.50;4.17;;;6.90;99.90;;;;;;4208757;28;20470;-74
2023/05/04 06:22:06;;;;;;;8.33;4.30;;;7.00;99.90;;;;;;4207946;28;20498;-74
2023/05/04 06:24:08;;;;;;;7.77;4.50;;;7.00;99.90;;;;;;4208777;28;20988;-74
2023/05/04 06:26:10;;;;;;;8.00;5.27;;;7.10;99.90;;;;;;4211465;28;20457;-73
2023/05/04 06:28:12;;;;;;;8.83;4.80;;;7.20;99.90;;;;;;4207718;28;20452;-73
2023/05/04 06:30:15;;;;;;;9.00;5.27;;;7.30;99.90;;;;;;4212080;28;20538;-73
2023/05/04 06:32:18;;;;;;;7.40;4.87;;;7.30;99.90;;;;;;4210578;28;20499;-75
2023/05/04 06:34:20;;;;;;;8.97;4.87;;;7.40;99.90;;;;;;4209080;28;20482;-73
2023/05/04 06:36:24;;;;;;;8.80;4.33;;;7.50;99.90;;;;;;4204386;28;20558;-72
2023/05/04 06:38:26;;;;;;;10.50;4.70;;;7.60;99.90;;;;;;4203763;28;20539;-73
2023/05/04 06:40:28;;;;;;;10.23;4.20;;;7.70;99.90;;;;;;4206089;28;20491;-73
2023/05/04 06:42:31;;;;;;;7.00;4.50;;;7.70;99.90;;;;;;4209829;28;20529;-73
2023/05/04 06:44:37;;;;;;;7.43;4.00;;;7.80;99.90;;;;;;4209451;28;20270;-73
2023/05/04 06:46:39;;;;;;;6.60;3.90;;;7.90;99.90;;;;;;4209629;28;20220;-73
2023/05/04 06:48:42;;;;;;;10.43;4.17;;;8.00;99.90;;;;;;4207518;28;20457;-73
2023/05/04 06:50:45;;;;;;;8.17;3.67;;;8.10;99.90;;;;;;4208555;28;20317;-73
2023/05/04 06:52:47;;;;;;;7.30;3.87;;;8.20;99.90;;;;;;4209132;28;20455;-73
2023/05/04 06:54:49;;;;;;;7.63;4.53;;;8.30;99.90;;;;;;4207531;28;20225;-73
2023/05/04 06:56:51;;;;;;;11.40;4.60;;;8.40;99.90;;;;;;4208565;28;20205;-73
2023/05/04 06:58:53;;;;;;;7.43;4.50;;;8.50;99.90;;;;;;4204029;28;20976;-75
2023/05/04 07:00:55;;;;;;;6.87;3.70;;;8.60;99.90;;;;;;4209896;28;20301;-75
2023/05/04 07:02:56;;;;;;;9.67;4.70;;;8.70;99.90;;;;;;4209384;28;20311;-74
2023/05/04 07:05:01;;;;;;;6.43;4.10;;;8.80;99.90;;;;;;4208439;28;20241;-74
2023/05/04 07:07:03;;;;;;;8.30;4.17;;;8.90;99.90;;;;;;4206420;28;20289;-74
2023/05/04 07:09:05;;;;;;;6.80;3.47;;;9.00;99.90;;;;;;4207727;28;20252;-73
2023/05/04 07:11:09;;;;;;;8.90;3.97;;;9.10;99.90;;;;;;4209931;28;20307;-73
2023/05/04 07:13:11;;;;;;;6.90;3.43;;;9.20;99.90;;;;;;4212053;28;20230;-73
2023/05/04 07:15:13;;;;;;;8.03;3.80;;;9.30;99.90;;;;;;4208796;28;20237;-74
2023/05/04 07:17:15;;;;;;;6.03;3.50;;;9.30;99.90;;;;;;4211403;28;20310;-73
2023/05/04 07:19:17;;;;;;;8.93;4.13;;;9.40;99.90;;;;;;4210139;28;20246;-75
2023/05/04 07:21:20;;;;;;;8.80;3.50;;;9.50;99.90;;;;;;4213393;28;20226;-75
2023/05/04 07:23:22;;;;;;;6.00;3.50;;;9.60;99.90;;;;;;4210722;28;20230;-73
2023/05/04 07:25:24;;;;;;;6.87;3.63;;;9.70;99.90;;;;;;4205048;28;20242;-73
2023/05/04 07:27:27;;;;;;;7.33;3.53;;;9.80;99.90;;;;;;4213610;28;20243;-73
2023/05/04 07:29:29;;;;;;;9.00;3.43;;;9.90;99.90;;;;;;4209293;28;20206;-72
2023/05/04 07:31:31;;;;;;;8.20;4.13;;;10.00;99.90;;;;;;4207132;28;20211;-73
2023/05/04 07:33:32;;;;;;;8.73;3.67;;;10.10;99.90;;;;;;4212642;28;20263;-74
2023/05/04 07:35:34;;;;;;;8.87;3.43;;;10.20;99.90;;;;;;4206579;28;20675;-73
2023/05/04 07:37:38;;;;;;;7.80;3.37;;;10.30;99.90;;;;;;4206560;28;20903;-73
2023/05/04 07:39:39;;;;;;;9.17;3.30;;;10.40;99.90;;;;;;4210711;28;20561;-74
2023/05/04 07:41:41;;;;;;;7.17;3.30;;;10.50;99.90;;;;;;4207280;28;20240;-74
2023/05/04 07:43:43;;;;;;;6.57;3.50;;;10.50;99.90;;;;;;4205323;28;20318;-74
2023/05/04 07:45:45;;;;;;;8.03;3.37;;;10.60;99.90;;;;;;4207558;28;20807;-73
2023/05/04 07:47:47;;;;;;;4.33;2.70;;;10.70;99.90;;;;;;4208892;28;20277;-74
2023/05/04 07:49:49;;;;;;;6.30;3.00;;;10.80;99.90;;;;;;4211856;28;20239;-74
2023/05/04 07:51:51;;;;;;;4.23;2.63;;;10.90;99.90;;;;;;4209822;28;20776;-73
2023/05/04 07:53:54;;;;;;;5.17;2.80;;;11.00;99.90;;;;;;4206038;28;20221;-73
2023/05/04 07:55:59;;;;;;;6.53;3.00;;;11.00;99.90;;;;;;4202098;28;20312;-74
2023/05/04 07:58:01;;;;;;;6.47;2.50;;;11.20;99.90;;;;;;4209528;28;21120;-74
2023/05/04 08:00:04;;;;;;;8.43;2.70;;;11.30;99.90;;;;;;4207320;28;20288;-74
2023/05/04 08:02:06;;;;;;;5.73;2.33;;;11.30;99.90;;;;;;4206890;28;20222;-76
2023/05/04 08:04:08;;;;;;;4.40;2.53;;;11.40;99.90;;;;;;4209035;28;20848;-73
2023/05/04 08:06:10;;;;;;;7.33;2.90;;;11.50;99.90;;;;;;4203130;28;20209;-72
2023/05/04 08:08:12;;;;;;;5.97;2.83;;;11.60;99.90;;;;;;4210429;28;20208;-73
2023/05/04 08:10:15;;;;;;;4.13;2.53;;;11.70;99.90;;;;;;4209547;28;20221;-73
2023/05/04 08:12:17;;;;;;;8.17;2.43;;;11.80;99.90;;;;;;4209093;28;20206;-73
2023/05/04 08:14:19;;;;;;;7.53;3.47;;;11.90;99.90;;;;;;4205071;28;20252;-74
2023/05/04 08:16:21;;;;;;;6.60;2.90;;;12.00;99.90;;;;;;4204992;28;20298;-75
2023/05/04 08:18:22;;;;;;;4.70;2.40;;;12.10;99.90;;;;;;4204218;28;20222;-74
2023/05/04 08:20:24;;;;;;;5.00;2.30;;;12.20;99.90;;;;;;4206953;28;20211;-75
2023/05/04 08:22:26;;;;;;;8.33;2.53;;;12.30;99.90;;;;;;4208295;28;20670;-74
2023/05/04 08:24:29;;;;;;;4.70;2.73;;;12.50;99.90;;;;;;4207104;28;20230;-74
2023/05/04 08:26:33;;;;;;;5.93;2.70;;;12.60;99.90;;;;;;4208318;28;20206;-75
2023/05/04 08:28:36;;;;;;;5.10;2.43;;;12.60;99.90;;;;;;4211518;28;20270;-74
2023/05/04 08:30:38;;;;;;;4.90;2.70;;;12.70;99.90;;;;;;4210025;28;20298;-75
2023/05/04 08:32:40;;;;;;;3.63;2.37;;;12.80;99.90;;;;;;4209641;28;20666;-74
2023/05/04 08:34:42;;;;;;;4.57;2.30;;;12.90;99.90;;;;;;4208209;28;20209;-74
2023/05/04 08:36:45;;;;;;;4.80;2.20;;;13.00;99.90;;;;;;4206650;28;20220;-74
2023/05/04 08:38:47;;;;;;;5.57;2.37;;;13.10;99.90;;;;;;4216745;28;20835;-74
2023/05/04 08:40:49;;;;;;;3.50;2.57;;;13.10;99.90;;;;;;4209585;28;20205;-74
2023/05/04 08:42:53;;;;;;;4.43;2.47;;;13.30;99.90;;;;;;4210688;28;20965;-75
2023/05/04 08:44:57;;;;;;;5.70;2.50;;;13.30;99.90;;;;;;4207906;28;20219;-74
2023/05/04 08:46:59;;;;;;;6.20;2.10;;;13.40;99.90;;;;;;4209905;28;20214;-73
2023/05/04 08:49:00;;;;;;;6.87;2.40;;;13.50;99.90;;;;;;4208427;28;20247;-73
2023/05/04 08:51:03;;;;;;;3.40;1.83;;;13.60;99.90;;;;;;4209185;28;20231;-75
2023/05/04 08:53:07;;;;;;;5.90;2.40;;;13.70;99.90;;;;;;4210603;28;20578;-74
2023/05/04 08:55:11;;;;;;;4.67;2.10;;;13.80;99.90;;;;;;4212115;28;20686;-74
2023/05/04 08:57:15;;;;;;;4.47;2.00;;;13.90;99.90;;;;;;4206244;28;20242;-73
2023/05/04 08:59:20;;;;;;;5.00;2.40;;;14.00;99.90;;;;;;4209466;28;20314;-74
2023/05/04 09:01:22;;;;;;;3.97;1.90;;;14.10;99.90;;;;;;4209139;28;20265;-75
2023/05/04 09:03:25;;;;;;;3.73;2.03;;;14.20;99.90;;;;;;4209917;28;20229;-74
2023/05/04 09:05:28;;;;;;;4.23;2.20;;;14.20;99.90;;;;;;4210652;28;20215;-74
2023/05/04 09:07:30;;;;;;;5.27;2.53;;;14.30;99.90;;;;;;4210638;28;20260;-74
2023/05/04 09:09:32;;;;;;;6.00;1.93;;;14.40;99.90;;;;;;4208310;28;20303;-74
2023/05/04 09:11:34;;;;;;;4.33;2.30;;;14.50;99.90;;;;;;4208497;28;20702;-74
2023/05/04 09:13:36;;;;;;;5.43;1.87;;;14.60;99.90;;;;;;4211385;28;20324;-74
2023/05/04 09:15:39;;;;;;;3.37;1.90;;;14.70;99.90;;;;;;4206697;28;20257;-73
2023/05/04 09:17:42;;;;;;;5.20;1.90;;;14.80;99.90;;;;;;4210469;28;20217;-74
2023/05/04 09:19:44;;;;;;;4.33;2.10;;;14.90;97.50;;;;;;4208632;28;20205;-74
2023/05/04 09:21:48;;;;;;;7.00;2.37;;;15.00;96.80;;;;;;4208667;28;20295;-74
2023/05/04 09:23:51;;;;;;;5.20;2.27;;;15.10;99.00;;;;;;4209197;28;20332;-74
2023/05/04 09:25:54;;;;;;;4.13;1.83;;;15.20;99.50;;;;;;4209242;28;20209;-74
2023/05/04 09:27:56;;;;;;;2.67;1.80;;;15.30;99.90;;;;;;4207915;28;20213;-74
2023/05/04 09:29:58;;;;;;;6.57;2.17;;;15.40;99.90;;;;;;4208023;28;21116;-74
2023/05/04 09:32:01;;;;;;;5.17;2.33;;;15.50;97.40;;;;;;4210608;28;20308;-74
2023/05/04 09:34:08;;;;;;;4.43;2.07;;;15.60;95.30;;;;;;4211475;28;20324;-74
2023/05/04 09:36:15;;;;;;;4.30;2.00;;;15.70;93.50;;;;;;4206667;28;20279;-74
2023/05/04 09:38:25;;;;;;;4.10;2.20;;;15.80;91.80;;;;;;4213835;28;20206;-74
2023/05/04 09:40:31;;;;;;;7.37;2.27;;;15.90;77.90;;;;;;4209887;28;20296;-74
2023/05/04 09:42:33;;;;;;;8.13;2.13;;;16.00;66.70;;;;;;4206065;28;20301;-74
2023/05/04 09:44:35;;;;;;;4.20;2.27;;;16.10;62.00;;;;;;4206659;28;20757;-77
2023/05/04 09:46:38;;;;;;;5.77;1.90;;;16.20;66.90;;;;;;4213526;28;20726;-76
2023/05/04 09:48:50;;;;;;;3.63;1.73;;;16.30;65.20;;;;;;4212481;28;20278;-76
2023/05/04 09:50:53;;;;;;;3.63;1.80;;;16.40;66.20;;;;;;4209509;28;20268;-77
2023/05/04 09:52:56;;;;;;;3.93;1.73;;;16.50;73.90;;;;;;4205761;28;20981;-74
2023/05/04 09:54:59;;;;;;;4.33;1.67;;;16.60;73.70;;;;;;4204363;28;20296;-75
2023/05/04 09:57:10;;;;;;;4.17;2.03;;;16.70;68.20;;;;;;4209590;28;20583;-75
2023/05/04 09:59:13;;;;;;;3.93;1.70;;;16.80;64.80;;;;;;4207555;28;20218;-77
2023/05/04 10:01:16;;;;;;;4.73;1.77;;;16.90;67.90;;;;;;4207926;28;20229;-74
2023/05/04 10:03:18;;;;;;;3.03;1.80;;;16.90;65.10;;;;;;4208651;28;20225;-73
2023/05/04 10:05:22;;;;;;;3.37;2.00;;;17.10;65.60;;;;;;4206630;28;20653;-76
2023/05/04 10:07:24;;;;;;;5.13;2.07;;;17.20;56.20;;;;;;4205199;28;20304;-73
2023/05/04 10:09:29;;;;;;;4.17;1.97;;;17.20;55.60;;;;;;4207693;28;20246;-73
2023/05/04 10:11:32;;;;;;;4.00;1.77;;;17.30;56.50;;;;;;4209637;28;20259;-74
2023/05/04 10:13:34;;;;;;;4.67;1.70;;;17.40;56.80;;;;;;4210402;28;20263;-74
2023/05/04 10:15:45;;;;;;;7.77;1.80;;;17.50;55.70;;;;;;4207092;28;20211;-74
2023/05/04 10:18:10;;;;;;;4.03;1.87;;;17.60;54.40;;;;;;4207514;28;20208;-73
2023/05/04 10:20:26;;;;;;;3.47;1.90;;;17.70;51.40;;;;;;4211667;28;20292;-73
2023/05/04 10:22:40;;;;;;;3.90;1.83;;;17.80;50.60;;;;;;4215729;28;20299;-74
2023/05/04 10:25:05;;;;;;;4.50;1.80;;;17.90;49.40;;;;;;4210968;28;20244;-74
2023/05/04 10:27:12;;;;;;;5.90;1.87;;;18.00;50.80;;;;;;4209254;28;20224;-74
2023/05/04 10:29:21;;;;;;;4.90;1.80;;;18.10;50.70;;;;;;4209355;28;20550;-74
2023/05/04 10:31:23;;;;;;;7.07;1.80;;;18.20;50.30;;;;;;4209001;28;20232;-75
2023/05/04 10:33:25;;;;;;;3.87;1.63;;;18.30;50.70;;;;;;4205913;28;20336;-75
2023/05/04 10:35:29;;;;;;;4.77;2.20;;;18.40;51.40;;;;;;4213245;28;20213;-75
2023/05/04 10:37:30;;;;;;;3.63;1.77;;;18.50;51.50;;;;;;4206345;28;20228;-72
2023/05/04 10:39:35;;;;;;;3.03;1.80;;;18.70;49.40;;;;;;4209468;28;20231;-76
2023/05/04 10:41:37;;;;;;;4.10;1.77;;;18.70;50.60;;;;;;4207765;28;20237;-73
2023/05/04 10:43:39;;;;;;;3.83;1.93;;;18.90;49.80;;;;;;4206553;28;22051;-73